createdAt,value
2022-10-19T00:01:18.973Z,97.59
2022-10-19T00:06:19.945Z,97.50
2022-10-19T00:08:49.423Z,97.44
2022-10-19T00:11:17.528Z,97.41
2022-10-19T00:13:45.815Z,97.35
2022-10-19T00:16:17.343Z,97.31
2022-10-19T00:18:46.460Z,97.23
2022-10-19T00:21:17.775Z,97.23
2022-10-19T00:23:47.123Z,97.16
2022-10-19T00:26:16.629Z,97.11
2022-10-19T00:28:45.789Z,97.07
2022-10-19T00:31:16.354Z,97.02
2022-10-19T00:33:46.656Z,97.04
2022-10-19T00:36:17.330Z,96.93
2022-10-19T00:38:45.847Z,96.87
2022-10-19T00:41:19.625Z,96.78
2022-10-19T00:43:52.828Z,96.71
2022-10-19T00:46:21.403Z,96.65
2022-10-19T00:48:50.167Z,96.53
2022-10-19T00:51:19.525Z,96.42
2022-10-19T00:53:47.696Z,96.32
2022-10-19T00:56:19.434Z,96.20
2022-10-19T00:58:47.851Z,96.15
2022-10-19T01:01:18.481Z,96.01
2022-10-19T01:03:47.230Z,95.93
2022-10-19T01:06:18.987Z,95.81
2022-10-19T01:08:58.062Z,95.68
2022-10-19T01:11:38.338Z,95.58
2022-10-19T01:14:15.994Z,95.49
2022-10-19T01:16:53.324Z,95.36
2022-10-19T01:20:00.792Z,95.35
2022-10-19T01:22:38.153Z,95.27
2022-10-19T01:25:15.440Z,95.18
2022-10-19T01:27:55.656Z,95.09
2022-10-19T01:30:34.168Z,94.98
2022-10-19T01:33:29.711Z,94.96
2022-10-19T01:36:04.233Z,94.94
2022-10-19T01:38:37.188Z,94.91
2022-10-19T01:41:13.982Z,94.90
2022-10-19T01:43:44.772Z,94.87
2022-10-19T01:46:17.294Z,94.88
2022-10-19T01:48:52.444Z,94.67
2022-10-19T01:51:23.284Z,94.47
2022-10-19T01:53:54.372Z,94.35
2022-10-19T01:56:25.886Z,94.28
2022-10-19T01:58:55.571Z,94.22
2022-10-19T02:01:27.543Z,94.32
2022-10-19T02:03:56.243Z,94.27
2022-10-19T02:06:26.023Z,94.22
2022-10-19T02:08:58.106Z,94.18
2022-10-19T02:11:27.473Z,94.20
2022-10-19T02:14:00.948Z,94.07
2022-10-19T02:16:34.153Z,93.98
2022-10-19T02:19:03.457Z,93.97
2022-10-19T02:21:34.585Z,93.80
2022-10-19T02:24:04.308Z,93.58
2022-10-19T02:26:32.452Z,93.47
2022-10-19T02:29:00.706Z,93.48
2022-10-19T02:31:31.147Z,93.41
2022-10-19T02:33:59.516Z,93.39
2022-10-19T02:36:27.582Z,93.46
2022-10-19T02:38:56.964Z,93.36
2022-10-19T02:41:28.681Z,93.33
2022-10-19T02:44:01.743Z,93.29
2022-10-19T02:46:34.126Z,93.25
2022-10-19T02:49:04.411Z,92.99
2022-10-19T02:54:27.124Z,93.04
2022-10-19T02:56:55.771Z,92.99
2022-10-19T02:59:24.524Z,93.06
2022-10-19T03:01:54.108Z,92.90
2022-10-19T03:04:22.227Z,92.98
2022-10-19T03:06:50.686Z,93.03
2022-10-19T03:09:18.798Z,93.13
2022-10-19T03:11:47.198Z,92.96
2022-10-19T03:14:15.164Z,92.97
2022-10-19T03:16:44.477Z,92.93
2022-10-19T03:19:13.976Z,92.99
2022-10-19T03:21:42.293Z,92.88
2022-10-19T03:24:10.398Z,92.96
2022-10-19T03:26:38.700Z,92.91
2022-10-19T03:29:08.890Z,92.86
2022-10-19T03:31:37.066Z,92.97
2022-10-19T03:34:05.357Z,92.86
2022-10-19T03:36:36.684Z,92.89
2022-10-19T03:39:07.814Z,92.87
2022-10-19T03:41:39.120Z,92.92
2022-10-19T03:44:08.443Z,92.91
2022-10-19T03:46:36.585Z,92.94
2022-10-19T03:49:06.034Z,92.96
2022-10-19T03:51:35.850Z,92.90
2022-10-19T03:54:05.595Z,92.94
2022-10-19T03:56:34.370Z,93.09
2022-10-19T03:59:03.382Z,93.14
2022-10-19T04:01:33.983Z,93.13
2022-10-19T04:04:03.980Z,93.00
2022-10-19T04:06:34.030Z,92.94
2022-10-19T04:09:06.253Z,92.88
2022-10-19T04:11:35.208Z,92.88
2022-10-19T04:14:03.801Z,93.17
2022-10-19T04:16:32.762Z,93.20
2022-10-19T04:19:02.166Z,93.08
2022-10-19T04:21:31.753Z,93.18
2022-10-19T04:24:04.140Z,93.00
2022-10-19T04:26:32.062Z,92.87
2022-10-19T04:29:01.103Z,92.78
2022-10-19T04:31:30.715Z,92.79
2022-10-19T04:33:59.560Z,92.94
2022-10-19T04:36:27.950Z,92.97
2022-10-19T04:38:56.203Z,92.92
2022-10-19T04:41:25.999Z,92.78
2022-10-19T04:43:57.612Z,92.60
2022-10-19T04:46:27.138Z,92.59
2022-10-19T04:48:56.663Z,92.38
2022-10-19T04:51:27.844Z,92.25
2022-10-19T04:54:00.345Z,92.43
2022-10-19T04:56:32.375Z,92.42
2022-10-19T04:59:01.362Z,92.33
2022-10-19T05:01:31.066Z,92.30
2022-10-19T05:04:00.410Z,92.79
2022-10-19T05:06:31.343Z,93.15
2022-10-19T05:09:00.347Z,93.20
2022-10-19T05:11:31.408Z,93.15
2022-10-19T05:14:00.601Z,92.61
2022-10-19T05:16:29.541Z,92.46
2022-10-19T05:18:59.613Z,92.40
2022-10-19T05:21:28.790Z,91.85
2022-10-19T05:23:59.155Z,91.54
2022-10-19T05:26:29.160Z,91.46
2022-10-19T05:29:01.855Z,91.52
2022-10-19T05:31:31.556Z,91.41
2022-10-19T05:34:00.570Z,91.30
2022-10-19T05:36:34.430Z,91.32
2022-10-19T05:39:04.734Z,91.30
2022-10-19T05:41:33.256Z,91.24
2022-10-19T05:44:03.121Z,91.25
2022-10-19T05:46:32.146Z,91.25
2022-10-19T05:49:01.328Z,91.33
2022-10-19T05:51:29.761Z,91.44
2022-10-19T05:53:58.054Z,91.47
2022-10-19T05:56:27.659Z,91.56
2022-10-19T05:58:57.777Z,91.52
2022-10-19T06:01:30.676Z,91.62
2022-10-19T06:04:00.615Z,91.64
2022-10-19T06:06:29.158Z,91.70
2022-10-19T06:08:59.183Z,91.61
2022-10-19T06:11:28.923Z,91.51
2022-10-19T06:13:58.805Z,91.50
2022-10-19T06:16:34.408Z,91.48
2022-10-19T06:19:04.449Z,91.56
2022-10-19T06:21:33.557Z,91.68
2022-10-19T06:24:04.132Z,91.65
2022-10-19T06:26:33.160Z,91.61
2022-10-19T06:29:04.125Z,91.70
2022-10-19T06:31:35.121Z,91.76
2022-10-19T06:34:03.688Z,91.78
2022-10-19T06:36:33.231Z,91.69
2022-10-19T06:39:02.624Z,91.58
2022-10-19T06:41:30.874Z,91.46
2022-10-19T06:43:59.636Z,91.29
2022-10-19T06:46:30.029Z,90.92
2022-10-19T06:49:01.406Z,90.83
2022-10-19T06:51:32.210Z,90.65
2022-10-19T06:54:00.793Z,90.38
2022-10-19T06:56:30.272Z,90.41
2022-10-19T06:58:59.267Z,90.23
2022-10-19T07:01:30.238Z,89.92
2022-10-19T07:03:59.621Z,90.00
2022-10-19T07:06:28.932Z,90.16
2022-10-19T07:08:57.112Z,89.98
2022-10-19T07:11:27.054Z,89.68
2022-10-19T07:13:55.678Z,89.40
2022-10-19T07:16:24.136Z,89.51
2022-10-19T07:18:53.860Z,89.27
2022-10-19T07:21:24.642Z,88.82
2022-10-19T07:23:53.226Z,88.66
2022-10-19T07:26:23.942Z,88.56
2022-10-19T07:28:53.131Z,88.27
2022-10-19T07:31:24.776Z,87.94
2022-10-19T07:33:54.187Z,87.79
2022-10-19T07:36:24.620Z,87.32
2022-10-19T07:38:55.898Z,86.91
2022-10-19T07:41:25.583Z,86.86
2022-10-19T07:43:57.710Z,87.01
2022-10-19T07:46:29.118Z,87.12
2022-10-19T07:48:57.206Z,87.02
2022-10-19T07:53:57.302Z,86.43
2022-10-19T07:56:26.703Z,86.30
2022-10-19T07:58:56.805Z,85.84
2022-10-19T08:01:26.865Z,85.36
2022-10-19T08:06:54.494Z,85.36
2022-10-19T08:09:51.079Z,84.64
2022-10-19T08:12:14.777Z,84.68
2022-10-19T08:14:44.903Z,83.93
2022-10-19T08:17:16.874Z,83.70
2022-10-19T08:19:47.228Z,83.21
2022-10-19T08:22:17.274Z,82.54
2022-10-19T08:24:46.402Z,82.77
2022-10-19T08:27:16.063Z,82.50
2022-10-19T08:29:46.623Z,82.07
2022-10-19T08:32:14.644Z,81.43
2022-10-19T08:34:42.947Z,81.43
2022-10-19T08:37:25.654Z,81.21
2022-10-19T08:43:01.694Z,81.55
2022-10-19T08:45:49.581Z,80.72
2022-10-19T08:48:26.294Z,79.83
2022-10-19T08:50:57.318Z,79.72
2022-10-19T08:53:33.555Z,79.64
2022-10-19T08:56:22.188Z,79.97
2022-10-19T08:59:14.330Z,79.68
2022-10-19T09:01:48.743Z,79.80
2022-10-19T09:04:23.098Z,79.97
2022-10-19T09:07:00.989Z,79.47
2022-10-19T09:09:31.300Z,78.59
2022-10-19T09:12:05.685Z,78.93
2022-10-19T09:14:36.641Z,79.58
2022-10-19T09:17:08.013Z,80.19
2022-10-19T09:19:36.043Z,78.93
2022-10-19T09:22:06.284Z,79.32
2022-10-19T09:24:40.898Z,78.46
2022-10-19T09:27:14.898Z,76.78
2022-10-19T09:29:49.368Z,75.84
2022-10-19T09:32:20.909Z,75.50
2022-10-19T09:34:52.465Z,74.96
2022-10-19T09:37:25.929Z,73.71
2022-10-19T09:39:56.322Z,72.85
2022-10-19T09:42:30.141Z,71.79
2022-10-19T09:45:00.396Z,71.49
2022-10-19T09:47:35.635Z,71.70
2022-10-19T09:50:10.350Z,71.08
2022-10-19T09:52:39.997Z,69.99
2022-10-19T09:55:22.466Z,71.95
2022-10-19T09:58:00.416Z,73.82
2022-10-19T10:00:35.936Z,72.92
2022-10-19T10:03:04.495Z,72.31
2022-10-19T10:08:28.948Z,69.62
2022-10-19T10:11:10.920Z,68.89
2022-10-19T10:13:42.356Z,67.99
2022-10-19T10:16:12.509Z,67.39
2022-10-19T10:18:52.479Z,68.69
2022-10-19T10:21:26.139Z,65.88
2022-10-19T10:24:03.598Z,66.63
2022-10-19T10:26:31.799Z,66.78
2022-10-19T10:29:02.220Z,67.74
2022-10-19T10:31:31.107Z,68.84
2022-10-19T10:34:12.224Z,70.64
2022-10-19T10:36:52.543Z,70.39
2022-10-19T10:39:20.993Z,70.71
2022-10-19T10:41:52.412Z,70.50
2022-10-19T10:44:24.156Z,71.83
2022-10-19T10:46:53.967Z,71.66
2022-10-19T10:49:23.837Z,72.16
2022-10-19T10:51:56.105Z,70.21
2022-10-19T10:54:25.726Z,67.98
2022-10-19T10:57:06.784Z,69.13
2022-10-19T10:59:45.619Z,69.61
2022-10-19T11:02:27.579Z,69.12
2022-10-19T11:04:59.203Z,69.11
2022-10-19T11:07:31.438Z,70.45
2022-10-19T11:10:02.602Z,70.17
2022-10-19T11:12:36.459Z,70.07
2022-10-19T11:15:15.116Z,69.53
2022-10-19T11:17:53.289Z,70.70
2022-10-19T11:20:23.661Z,68.99
2022-10-19T11:22:57.391Z,69.12
2022-10-19T11:25:33.515Z,68.24
2022-10-19T11:28:14.349Z,69.26
2022-10-19T11:30:57.242Z,68.48
2022-10-19T11:33:36.062Z,68.22
2022-10-19T11:36:09.375Z,68.09
2022-10-19T11:38:45.244Z,66.34
2022-10-19T11:41:27.074Z,65.51
2022-10-19T11:44:17.612Z,66.58
2022-10-19T11:46:56.839Z,66.13
2022-10-19T11:49:36.500Z,64.03
2022-10-19T11:52:12.341Z,63.68
2022-10-19T11:54:49.587Z,66.04
2022-10-19T11:57:30.602Z,67.06
2022-10-19T12:00:14.732Z,67.24
2022-10-19T12:03:03.916Z,67.94
2022-10-19T12:05:37.704Z,69.79
2022-10-19T12:08:20.685Z,69.62
2022-10-19T12:10:59.450Z,68.68
2022-10-19T12:13:31.569Z,68.90
2022-10-19T12:16:00.320Z,68.94
2022-10-19T12:18:33.636Z,69.18
2022-10-19T12:21:03.970Z,68.76
2022-10-19T12:23:35.345Z,69.63
2022-10-19T12:26:05.793Z,68.95
2022-10-19T12:28:35.742Z,67.72
2022-10-19T12:31:06.012Z,66.43
2022-10-19T12:33:47.830Z,66.25
2022-10-19T12:36:28.496Z,64.98
2022-10-19T12:39:02.980Z,64.49
2022-10-19T12:41:36.819Z,62.89
2022-10-19T12:44:17.710Z,63.85
2022-10-19T12:46:53.130Z,63.66
2022-10-19T12:49:44.711Z,64.01
2022-10-19T12:52:19.781Z,62.84
2022-10-19T12:54:47.868Z,64.61
2022-10-19T12:57:27.870Z,63.56
2022-10-19T13:00:01.088Z,64.60
2022-10-19T13:05:03.029Z,61.61
2022-10-19T13:07:32.342Z,60.59
2022-10-19T13:10:03.541Z,61.58
2022-10-19T13:12:44.748Z,61.91
2022-10-19T13:15:59.101Z,63.13
2022-10-19T13:19:09.706Z,61.98
2022-10-19T13:21:53.682Z,63.35
2022-10-19T13:24:35.351Z,63.66
2022-10-19T13:27:38.499Z,65.04
2022-10-19T13:30:46.615Z,65.82
2022-10-19T13:33:43.354Z,65.44
2022-10-19T13:36:12.153Z,65.86
2022-10-19T13:38:42.455Z,66.33
2022-10-19T13:41:14.470Z,66.84
2022-10-19T13:44:07.630Z,68.04
2022-10-19T13:46:50.651Z,68.18
2022-10-19T13:49:31.771Z,68.19
2022-10-19T13:52:19.002Z,68.69
2022-10-19T13:55:18.963Z,68.90
2022-10-19T13:58:00.656Z,69.16
2022-10-19T14:00:31.853Z,69.16
2022-10-19T14:03:06.727Z,69.59
2022-10-19T14:06:03.031Z,69.88
2022-10-19T14:08:44.607Z,70.18
2022-10-19T14:11:17.081Z,69.84
2022-10-19T14:13:45.200Z,69.87
2022-10-19T14:16:20.763Z,69.52
2022-10-19T14:18:55.348Z,69.86
2022-10-19T14:21:33.902Z,71.04
2022-10-19T14:24:02.367Z,70.24
2022-10-19T14:26:32.368Z,70.40
2022-10-19T14:29:01.038Z,70.41
2022-10-19T14:31:32.651Z,69.28
2022-10-19T14:34:05.046Z,68.67
2022-10-19T14:36:35.973Z,69.00
2022-10-19T14:39:05.636Z,68.44
2022-10-19T14:41:37.392Z,67.48
2022-10-19T14:44:29.402Z,67.46
2022-10-19T14:46:58.016Z,66.06
2022-10-19T14:49:26.118Z,65.14
2022-10-19T14:51:57.412Z,65.68
2022-10-19T14:54:29.541Z,65.51
2022-10-19T14:57:00.986Z,64.88
2022-10-19T14:59:32.266Z,65.91
2022-10-19T15:02:02.418Z,66.12
2022-10-19T15:04:31.679Z,66.12
2022-10-19T15:07:00.152Z,67.00
2022-10-19T15:09:37.606Z,67.75
2022-10-19T15:12:17.500Z,68.65
2022-10-19T15:14:46.545Z,68.45
2022-10-19T15:17:24.410Z,69.49
2022-10-19T15:19:53.804Z,69.80
2022-10-19T15:22:26.763Z,70.05
2022-10-19T15:24:58.276Z,71.05
2022-10-19T15:27:35.852Z,72.14
2022-10-19T15:30:07.743Z,72.07
2022-10-19T15:32:38.286Z,72.32
2022-10-19T15:35:12.529Z,73.39
2022-10-19T15:37:43.091Z,73.76
2022-10-19T15:40:13.347Z,74.25
2022-10-19T15:42:44.595Z,74.93
2022-10-19T15:45:36.731Z,75.14
2022-10-19T15:48:29.004Z,76.17
2022-10-19T15:50:58.021Z,75.66
2022-10-19T15:53:27.796Z,75.96
2022-10-19T15:55:56.048Z,76.26
2022-10-19T15:58:25.916Z,77.04
2022-10-19T16:00:54.030Z,77.29
2022-10-19T16:03:23.309Z,77.59
2022-10-19T16:05:51.581Z,77.82
2022-10-19T16:08:19.578Z,78.20
2022-10-19T16:10:47.568Z,78.39
2022-10-19T16:13:16.531Z,78.92
2022-10-19T16:15:50.050Z,79.12
2022-10-19T16:18:24.751Z,79.41
2022-10-19T16:20:52.710Z,79.72
2022-10-19T16:25:49.623Z,80.34
2022-10-19T16:28:18.246Z,80.63
2022-10-19T16:30:52.554Z,80.91
2022-10-19T16:33:20.773Z,81.10
2022-10-19T16:35:48.947Z,81.73
2022-10-19T16:38:17.343Z,82.28
2022-10-19T16:40:45.578Z,82.66
2022-10-19T16:43:13.651Z,83.10
2022-10-19T16:45:43.503Z,83.64
2022-10-19T16:48:13.665Z,84.07
2022-10-19T16:53:11.239Z,84.62
2022-10-19T16:55:40.601Z,84.86
2022-10-19T16:58:08.649Z,85.16
2022-10-19T17:00:37.017Z,85.56
2022-10-19T17:03:05.531Z,85.87
2022-10-19T17:05:38.911Z,86.13
2022-10-19T17:08:07.730Z,86.38
2022-10-19T17:10:35.866Z,86.80
2022-10-19T17:13:04.258Z,87.13
2022-10-19T17:15:42.415Z,87.39
2022-10-19T17:18:11.664Z,87.63
2022-10-19T17:20:41.175Z,88.17
2022-10-19T17:23:09.694Z,88.63
2022-10-19T17:25:40.024Z,88.75
2022-10-19T17:28:08.137Z,88.98
2022-10-19T17:30:36.447Z,89.19
2022-10-19T17:33:07.089Z,89.37
2022-10-19T17:35:35.462Z,89.30
2022-10-19T17:38:05.943Z,89.36
2022-10-19T17:40:34.298Z,89.54
2022-10-19T17:43:03.330Z,89.63
2022-10-19T17:45:31.705Z,89.66
2022-10-19T17:47:59.903Z,89.80
2022-10-19T17:50:30.512Z,89.73
2022-10-19T17:52:59.132Z,89.75
2022-10-19T17:55:28.673Z,89.85
2022-10-19T17:57:57.112Z,89.94
2022-10-19T18:03:21.172Z,91.03
2022-10-19T18:06:00.451Z,91.25
2022-10-19T18:08:28.837Z,91.47
2022-10-19T18:11:02.845Z,91.34
2022-10-19T18:13:32.113Z,91.34
2022-10-19T18:16:01.739Z,91.46
2022-10-19T18:18:30.778Z,91.58
2022-10-19T18:20:59.536Z,91.69
2022-10-19T18:23:27.530Z,91.90
2022-10-19T18:25:55.740Z,91.99
2022-10-19T18:28:25.812Z,91.87
2022-10-19T18:30:54.161Z,92.00
2022-10-19T18:33:23.776Z,91.93
2022-10-19T18:35:53.024Z,91.80
2022-10-19T18:38:21.950Z,91.73
2022-10-19T18:40:50.448Z,91.63
2022-10-19T18:43:20.948Z,91.56
2022-10-19T18:45:56.506Z,91.81
2022-10-19T18:48:25.410Z,92.14
2022-10-19T18:50:55.154Z,92.23
2022-10-19T18:53:23.447Z,92.16
2022-10-19T18:55:58.427Z,92.03
2022-10-19T18:58:27.123Z,91.85
2022-10-19T19:01:06.155Z,92.09
2022-10-19T19:03:34.439Z,92.44
2022-10-19T19:06:04.493Z,92.69
2022-10-19T19:08:32.565Z,92.68
2022-10-19T19:11:10.323Z,92.85
2022-10-19T19:13:39.783Z,92.62
2022-10-19T19:16:10.296Z,92.66
2022-10-19T19:18:38.485Z,92.44
2022-10-19T19:21:15.275Z,92.28
2022-10-19T19:23:45.065Z,92.23
2022-10-19T19:26:14.393Z,92.31
2022-10-19T19:28:47.643Z,92.38
2022-10-19T19:31:20.558Z,92.26
2022-10-19T19:33:48.975Z,92.55
2022-10-19T19:36:18.752Z,92.82
2022-10-19T19:38:49.065Z,93.02
2022-10-19T19:41:17.785Z,93.34
2022-10-19T19:43:46.102Z,93.89
2022-10-19T19:46:16.731Z,94.32
2022-10-19T19:48:48.758Z,94.45
2022-10-19T19:51:19.576Z,94.64
2022-10-19T19:53:48.919Z,94.74
2022-10-19T19:56:18.145Z,94.59
2022-10-19T19:58:46.582Z,94.29
2022-10-19T20:01:17.022Z,94.03
2022-10-19T20:03:47.446Z,94.34
2022-10-19T20:06:19.599Z,94.41
2022-10-19T20:08:50.272Z,94.00
2022-10-19T20:11:18.402Z,93.79
2022-10-19T20:13:47.487Z,93.66
2022-10-19T20:16:17.398Z,94.04
2022-10-19T20:18:49.244Z,94.32
2022-10-19T20:21:18.103Z,94.26
2022-10-19T20:23:46.668Z,94.22
2022-10-19T20:26:18.619Z,94.15
2022-10-19T20:28:47.064Z,94.20
2022-10-19T20:31:15.608Z,94.17
2022-10-19T20:33:44.847Z,94.18
2022-10-19T20:36:15.950Z,94.08
2022-10-19T20:38:47.675Z,93.93
2022-10-19T20:41:15.839Z,93.72
2022-10-19T20:43:44.870Z,93.37
2022-10-19T20:46:14.887Z,93.10
2022-10-19T20:48:43.025Z,92.92
2022-10-19T20:51:17.699Z,92.59
2022-10-19T20:53:48.627Z,92.56
2022-10-19T20:56:18.909Z,92.48
2022-10-19T20:58:48.076Z,92.24
2022-10-19T21:01:18.223Z,91.96
2022-10-19T21:03:47.223Z,91.69
2022-10-19T21:06:16.842Z,91.25
2022-10-19T21:08:47.666Z,90.76
2022-10-19T21:11:17.077Z,90.33
2022-10-19T21:13:47.091Z,89.90
2022-10-19T21:16:17.807Z,89.35
2022-10-19T21:18:47.403Z,89.06
2022-10-19T21:21:19.050Z,88.55
2022-10-19T21:23:48.457Z,88.10
2022-10-19T21:26:17.366Z,87.87
2022-10-19T21:28:48.007Z,87.73
2022-10-19T21:31:17.556Z,87.67
2022-10-19T21:33:46.068Z,87.53
2022-10-19T21:36:16.728Z,87.49
2022-10-19T21:38:46.613Z,87.58
2022-10-19T21:41:16.381Z,87.67
2022-10-19T21:43:44.979Z,87.63
2022-10-19T21:46:14.579Z,87.66
2022-10-19T21:48:51.652Z,87.70
2022-10-19T21:51:29.211Z,87.65
2022-10-19T21:53:59.445Z,87.60
2022-10-19T21:56:27.822Z,87.57
2022-10-19T21:58:56.099Z,87.49
2022-10-19T22:01:26.904Z,87.30
2022-10-19T22:03:59.064Z,87.22
2022-10-19T22:06:27.605Z,87.19
2022-10-19T22:08:56.589Z,87.25
2022-10-19T22:11:27.346Z,87.23
2022-10-19T22:13:56.936Z,87.26
2022-10-19T22:16:28.004Z,87.39
2022-10-19T22:18:56.499Z,87.29
2022-10-19T22:21:27.137Z,87.40
2022-10-19T22:23:57.498Z,87.44
2022-10-19T22:26:29.662Z,87.48
2022-10-19T22:28:59.776Z,87.40
2022-10-19T22:31:31.441Z,87.43
2022-10-19T22:34:01.583Z,87.54
2022-10-19T22:36:31.474Z,87.77
2022-10-19T22:39:00.046Z,87.77
2022-10-19T22:41:29.456Z,87.77
2022-10-19T22:44:00.210Z,88.03
2022-10-19T22:46:28.458Z,88.16
2022-10-19T22:48:58.567Z,88.31
2022-10-19T22:51:27.028Z,88.45
2022-10-19T22:53:55.391Z,88.66
2022-10-19T22:56:23.750Z,88.89
2022-10-19T22:58:53.411Z,89.17
2022-10-19T23:01:21.722Z,89.20
2022-10-19T23:03:49.943Z,89.32
2022-10-19T23:06:18.421Z,89.40
2022-10-19T23:08:49.117Z,89.62
2022-10-19T23:11:18.042Z,89.67
2022-10-19T23:13:47.504Z,89.78
2022-10-19T23:16:17.530Z,89.83
2022-10-19T23:18:47.903Z,89.82
2022-10-19T23:21:16.603Z,89.92
2022-10-19T23:23:45.971Z,90.06
2022-10-19T23:26:16.535Z,90.15
2022-10-19T23:28:46.816Z,90.30
2022-10-19T23:31:19.379Z,90.48
2022-10-19T23:33:48.557Z,90.64
2022-10-19T23:36:19.822Z,90.75
2022-10-19T23:38:49.411Z,90.80
2022-10-19T23:41:17.954Z,90.80
2022-10-19T23:43:46.850Z,90.82
2022-10-19T23:46:15.141Z,90.99
2022-10-19T23:48:44.828Z,91.11
2022-10-19T23:51:14.766Z,91.18
2022-10-19T23:53:45.951Z,91.27
2022-10-19T23:56:16.402Z,91.33
2022-10-19T23:58:46.073Z,91.45
